sensor_id;sensor_type;location;lat;lon;timestamp;P1;durP1;ratioP1;P2;durP2;ratioP2
21769;SDS011;11046;49.558;8.674;2023-04-07T00:00:13;15.87;;;9.47;;
21769;SDS011;11046;49.558;8.674;2023-04-07T00:03:15;18.20;;;9.50;;
21769;SDS011;11046;49.558;8.674;2023-04-07T00:06:15;14.83;;;8.97;;
21769;SDS011;11046;49.558;8.674;2023-04-07T00:09:16;15.67;;;9.67;;
21769;SDS011;11046;49.558;8.674;2023-04-07T00:12:16;18.57;;;10.50;;
21769;SDS011;11046;49.558;8.674;2023-04-07T00:15:17;16.57;;;9.20;;
21769;SDS011;11046;49.558;8.674;2023-04-07T00:18:18;17.53;;;9.57;;
21769;SDS011;11046;49.558;8.674;2023-04-07T00:21:18;16.00;;;9.43;;
21769;SDS011;11046;49.558;8.674;2023-04-07T00:24:19;20.60;;;9.50;;
21769;SDS011;11046;49.558;8.674;2023-04-07T00:27:19;16.23;;;9.33;;
21769;SDS011;11046;49.558;8.674;2023-04-07T00:30:22;17.50;;;10.10;;
21769;SDS011;11046;49.558;8.674;2023-04-07T00:33:22;15.70;;;8.83;;
21769;SDS011;11046;49.558;8.674;2023-04-07T00:36:23;18.07;;;10.23;;
21769;SDS011;11046;49.558;8.674;2023-04-07T00:39:23;19.53;;;9.80;;
21769;SDS011;11046;49.558;8.674;2023-04-07T00:42:26;16.53;;;9.57;;
21769;SDS011;11046;49.558;8.674;2023-04-07T00:45:28;22.07;;;8.63;;
21769;SDS011;11046;49.558;8.674;2023-04-07T00:48:28;18.00;;;9.00;;
21769;SDS011;11046;49.558;8.674;2023-04-07T00:51:30;21.23;;;9.17;;
21769;SDS011;11046;49.558;8.674;2023-04-07T00:54:31;16.87;;;9.27;;
21769;SDS011;11046;49.558;8.674;2023-04-07T00:57:32;16.13;;;9.47;;
21769;SDS011;11046;49.558;8.674;2023-04-07T01:00:34;17.67;;;9.73;;
21769;SDS011;11046;49.558;8.674;2023-04-07T01:04:00;14.27;;;9.50;;
21769;SDS011;11046;49.558;8.674;2023-04-07T01:07:08;15.47;;;9.33;;
21769;SDS011;11046;49.558;8.674;2023-04-07T01:10:25;15.93;;;9.60;;
21769;SDS011;11046;49.558;8.674;2023-04-07T01:13:37;15.03;;;9.07;;
21769;SDS011;11046;49.558;8.674;2023-04-07T01:16:51;16.10;;;8.97;;
21769;SDS011;11046;49.558;8.674;2023-04-07T01:19:57;15.00;;;9.07;;
21769;SDS011;11046;49.558;8.674;2023-04-07T01:23:01;14.73;;;8.40;;
21769;SDS011;11046;49.558;8.674;2023-04-07T01:26:15;15.63;;;8.77;;
21769;SDS011;11046;49.558;8.674;2023-04-07T01:29:29;17.93;;;9.10;;
21769;SDS011;11046;49.558;8.674;2023-04-07T01:32:31;16.63;;;9.27;;
21769;SDS011;11046;49.558;8.674;2023-04-07T01:35:35;18.17;;;9.30;;
21769;SDS011;11046;49.558;8.674;2023-04-07T01:38:37;15.80;;;9.27;;
21769;SDS011;11046;49.558;8.674;2023-04-07T01:41:39;15.10;;;8.37;;
21769;SDS011;11046;49.558;8.674;2023-04-07T01:44:40;16.63;;;9.27;;
21769;SDS011;11046;49.558;8.674;2023-04-07T01:47:42;15.47;;;8.93;;
21769;SDS011;11046;49.558;8.674;2023-04-07T01:50:43;15.00;;;9.50;;
21769;SDS011;11046;49.558;8.674;2023-04-07T01:53:46;16.33;;;8.90;;
21769;SDS011;11046;49.558;8.674;2023-04-07T01:56:48;14.03;;;8.33;;
21769;SDS011;11046;49.558;8.674;2023-04-07T01:59:49;16.27;;;8.77;;
21769;SDS011;11046;49.558;8.674;2023-04-07T02:02:54;17.33;;;9.20;;
21769;SDS011;11046;49.558;8.674;2023-04-07T02:05:59;16.97;;;8.40;;
21769;SDS011;11046;49.558;8.674;2023-04-07T02:09:07;15.17;;;8.83;;
21769;SDS011;11046;49.558;8.674;2023-04-07T02:12:10;16.87;;;9.70;;
21769;SDS011;11046;49.558;8.674;2023-04-07T02:15:19;20.40;;;10.13;;
21769;SDS011;11046;49.558;8.674;2023-04-07T02:18:21;20.93;;;9.50;;
21769;SDS011;11046;49.558;8.674;2023-04-07T02:21:24;16.83;;;9.33;;
21769;SDS011;11046;49.558;8.674;2023-04-07T02:24:26;15.67;;;9.40;;
21769;SDS011;11046;49.558;8.674;2023-04-07T02:27:27;15.10;;;7.13;;
21769;SDS011;11046;49.558;8.674;2023-04-07T02:30:27;8.10;;;5.37;;
21769;SDS011;11046;49.558;8.674;2023-04-07T02:33:29;10.27;;;5.27;;
21769;SDS011;11046;49.558;8.674;2023-04-07T02:36:30;9.87;;;5.57;;
21769;SDS011;11046;49.558;8.674;2023-04-07T02:39:32;10.87;;;6.00;;
21769;SDS011;11046;49.558;8.674;2023-04-07T02:42:32;9.63;;;5.00;;
21769;SDS011;11046;49.558;8.674;2023-04-07T02:45:33;10.17;;;5.50;;
21769;SDS011;11046;49.558;8.674;2023-04-07T02:48:33;9.60;;;5.37;;
21769;SDS011;11046;49.558;8.674;2023-04-07T02:51:34;8.73;;;4.90;;
21769;SDS011;11046;49.558;8.674;2023-04-07T02:54:35;10.63;;;5.40;;
21769;SDS011;11046;49.558;8.674;2023-04-07T02:57:36;8.27;;;4.87;;
21769;SDS011;11046;49.558;8.674;2023-04-07T03:00:41;9.43;;;5.17;;
21769;SDS011;11046;49.558;8.674;2023-04-07T03:03:46;7.87;;;4.70;;
21769;SDS011;11046;49.558;8.674;2023-04-07T03:06:54;8.73;;;5.10;;
21769;SDS011;11046;49.558;8.674;2023-04-07T03:09:55;9.60;;;5.50;;
21769;SDS011;11046;49.558;8.674;2023-04-07T03:12:56;8.93;;;4.97;;
21769;SDS011;11046;49.558;8.674;2023-04-07T03:15:57;8.30;;;4.83;;
21769;SDS011;11046;49.558;8.674;2023-04-07T03:19:00;9.50;;;5.00;;
21769;SDS011;11046;49.558;8.674;2023-04-07T03:22:03;7.83;;;4.77;;
21769;SDS011;11046;49.558;8.674;2023-04-07T03:25:08;9.23;;;4.97;;
21769;SDS011;11046;49.558;8.674;2023-04-07T03:28:10;9.47;;;4.90;;
21769;SDS011;11046;49.558;8.674;2023-04-07T03:31:12;8.50;;;5.10;;
21769;SDS011;11046;49.558;8.674;2023-04-07T03:34:13;11.20;;;5.63;;
21769;SDS011;11046;49.558;8.674;2023-04-07T03:37:14;8.73;;;4.70;;
21769;SDS011;11046;49.558;8.674;2023-04-07T03:40:15;9.33;;;5.03;;
21769;SDS011;11046;49.558;8.674;2023-04-07T03:43:17;9.30;;;5.23;;
21769;SDS011;11046;49.558;8.674;2023-04-07T03:46:18;11.00;;;5.80;;
21769;SDS011;11046;49.558;8.674;2023-04-07T03:49:20;9.00;;;5.27;;
21769;SDS011;11046;49.558;8.674;2023-04-07T03:52:22;9.43;;;5.30;;
21769;SDS011;11046;49.558;8.674;2023-04-07T03:55:27;10.17;;;5.23;;
21769;SDS011;11046;49.558;8.674;2023-04-07T03:58:33;8.53;;;5.07;;
21769;SDS011;11046;49.558;8.674;2023-04-07T04:01:34;9.07;;;5.63;;
21769;SDS011;11046;49.558;8.674;2023-04-07T04:04:42;14.77;;;5.90;;
21769;SDS011;11046;49.558;8.674;2023-04-07T04:07:44;10.70;;;5.70;;
21769;SDS011;11046;49.558;8.674;2023-04-07T04:10:45;9.60;;;5.27;;
21769;SDS011;11046;49.558;8.674;2023-04-07T04:13:45;9.67;;;5.73;;
21769;SDS011;11046;49.558;8.674;2023-04-07T04:16:46;11.07;;;5.73;;
21769;SDS011;11046;49.558;8.674;2023-04-07T04:20:01;9.57;;;5.10;;
21769;SDS011;11046;49.558;8.674;2023-04-07T04:23:13;12.87;;;6.03;;
21769;SDS011;11046;49.558;8.674;2023-04-07T04:26:15;10.30;;;5.50;;
21769;SDS011;11046;49.558;8.674;2023-04-07T04:29:18;9.97;;;5.47;;
21769;SDS011;11046;49.558;8.674;2023-04-07T04:32:20;12.70;;;6.23;;
21769;SDS011;11046;49.558;8.674;2023-04-07T04:35:21;9.20;;;4.83;;
21769;SDS011;11046;49.558;8.674;2023-04-07T04:38:35;9.37;;;5.10;;
21769;SDS011;11046;49.558;8.674;2023-04-07T04:41:51;9.90;;;5.43;;
21769;SDS011;11046;49.558;8.674;2023-04-07T04:44:51;8.70;;;4.93;;
21769;SDS011;11046;49.558;8.674;2023-04-07T04:47:54;10.13;;;5.70;;
21769;SDS011;11046;49.558;8.674;2023-04-07T04:50:55;8.03;;;5.00;;
21769;SDS011;11046;49.558;8.674;2023-04-07T04:53:56;9.90;;;5.10;;
21769;SDS011;11046;49.558;8.674;2023-04-07T04:56:58;7.47;;;4.37;;
21769;SDS011;11046;49.558;8.674;2023-04-07T05:00:02;9.37;;;4.87;;
21769;SDS011;11046;49.558;8.674;2023-04-07T05:03:03;9.00;;;5.20;;
21769;SDS011;11046;49.558;8.674;2023-04-07T05:06:08;9.53;;;5.07;;
21769;SDS011;11046;49.558;8.674;2023-04-07T05:09:09;10.10;;;5.13;;
21769;SDS011;11046;49.558;8.674;2023-04-07T05:12:16;8.30;;;4.87;;
21769;SDS011;11046;49.558;8.674;2023-04-07T05:15:22;7.23;;;4.67;;
21769;SDS011;11046;49.558;8.674;2023-04-07T05:18:24;7.73;;;4.37;;
21769;SDS011;11046;49.558;8.674;2023-04-07T05:21:25;9.87;;;4.97;;
21769;SDS011;11046;49.558;8.674;2023-04-07T05:24:28;7.50;;;4.20;;
21769;SDS011;11046;49.558;8.674;2023-04-07T05:27:32;7.53;;;4.50;;
21769;SDS011;11046;49.558;8.674;2023-04-07T05:30:38;8.20;;;4.13;;
21769;SDS011;11046;49.558;8.674;2023-04-07T05:33:39;7.33;;;4.17;;
21769;SDS011;11046;49.558;8.674;2023-04-07T05:36:40;7.77;;;4.63;;
21769;SDS011;11046;49.558;8.674;2023-04-07T05:39:41;8.60;;;4.67;;
21769;SDS011;11046;49.558;8.674;2023-04-07T05:42:45;9.00;;;4.73;;
21769;SDS011;11046;49.558;8.674;2023-04-07T05:45:47;8.83;;;4.70;;
21769;SDS011;11046;49.558;8.674;2023-04-07T05:48:48;6.93;;;4.67;;
21769;SDS011;11046;49.558;8.674;2023-04-07T05:51:50;8.83;;;4.83;;
21769;SDS011;11046;49.558;8.674;2023-04-07T05:54:50;9.50;;;4.97;;
21769;SDS011;11046;49.558;8.674;2023-04-07T05:57:51;7.33;;;4.20;;
21769;SDS011;11046;49.558;8.674;2023-04-07T06:00:55;6.93;;;4.27;;
21769;SDS011;11046;49.558;8.674;2023-04-07T06:03:56;8.40;;;4.57;;
21769;SDS011;11046;49.558;8.674;2023-04-07T06:07:00;9.70;;;5.57;;
21769;SDS011;11046;49.558;8.674;2023-04-07T06:10:01;8.43;;;4.90;;
21769;SDS011;11046;49.558;8.674;2023-04-07T06:13:01;9.57;;;5.03;;
21769;SDS011;11046;49.558;8.674;2023-04-07T06:16:03;9.20;;;4.53;;
21769;SDS011;11046;49.558;8.674;2023-04-07T06:19:11;11.67;;;5.43;;
21769;SDS011;11046;49.558;8.674;2023-04-07T06:22:13;8.60;;;4.83;;
21769;SDS011;11046;49.558;8.674;2023-04-07T06:25:14;8.27;;;4.87;;
21769;SDS011;11046;49.558;8.674;2023-04-07T06:28:16;8.63;;;5.00;;
21769;SDS011;11046;49.558;8.674;2023-04-07T06:31:18;10.47;;;5.30;;
21769;SDS011;11046;49.558;8.674;2023-04-07T06:34:20;7.57;;;4.43;;
21769;SDS011;11046;49.558;8.674;2023-04-07T06:37:20;12.07;;;5.97;;
21769;SDS011;11046;49.558;8.674;2023-04-07T06:40:23;17.93;;;8.33;;
21769;SDS011;11046;49.558;8.674;2023-04-07T06:43:24;13.73;;;6.80;;
21769;SDS011;11046;49.558;8.674;2023-04-07T06:46:30;9.43;;;5.60;;
21769;SDS011;11046;49.558;8.674;2023-04-07T06:49:31;10.83;;;5.67;;
21769;SDS011;11046;49.558;8.674;2023-04-07T06:52:32;10.00;;;5.90;;
21769;SDS011;11046;49.558;8.674;2023-04-07T06:55:36;11.57;;;5.43;;
21769;SDS011;11046;49.558;8.674;2023-04-07T06:58:40;9.10;;;5.23;;
21769;SDS011;11046;49.558;8.674;2023-04-07T07:01:40;8.83;;;5.60;;
21769;SDS011;11046;49.558;8.674;2023-04-07T07:04:42;8.87;;;5.47;;
21769;SDS011;11046;49.558;8.674;2023-04-07T07:07:43;13.37;;;5.83;;
21769;SDS011;11046;49.558;8.674;2023-04-07T07:10:43;11.33;;;6.17;;
21769;SDS011;11046;49.558;8.674;2023-04-07T07:13:44;9.73;;;5.37;;
21769;SDS011;11046;49.558;8.674;2023-04-07T07:16:45;9.70;;;4.87;;
21769;SDS011;11046;49.558;8.674;2023-04-07T07:19:47;8.73;;;5.00;;
21769;SDS011;11046;49.558;8.674;2023-04-07T07:22:47;9.23;;;5.23;;
21769;SDS011;11046;49.558;8.674;2023-04-07T07:25:49;7.47;;;4.77;;
21769;SDS011;11046;49.558;8.674;2023-04-07T07:28:50;9.90;;;5.60;;
21769;SDS011;11046;49.558;8.674;2023-04-07T07:31:51;7.87;;;4.83;;
21769;SDS011;11046;49.558;8.674;2023-04-07T07:34:51;9.23;;;5.43;;
21769;SDS011;11046;49.558;8.674;2023-04-07T07:37:52;10.20;;;5.33;;
21769;SDS011;11046;49.558;8.674;2023-04-07T07:40:52;10.10;;;5.40;;
21769;SDS011;11046;49.558;8.674;2023-04-07T07:43:53;9.20;;;5.23;;
21769;SDS011;11046;49.558;8.674;2023-04-07T07:46:53;8.65;;;5.20;;
21769;SDS011;11046;49.558;8.674;2023-04-07T07:49:54;8.67;;;5.27;;
21769;SDS011;11046;49.558;8.674;2023-04-07T07:52:55;8.52;;;4.70;;
21769;SDS011;11046;49.558;8.674;2023-04-07T07:55:55;11.05;;;4.70;;
21769;SDS011;11046;49.558;8.674;2023-04-07T07:58:56;8.45;;;5.13;;
21769;SDS011;11046;49.558;8.674;2023-04-07T08:01:57;9.65;;;5.00;;
21769;SDS011;11046;49.558;8.674;2023-04-07T08:04:57;10.07;;;5.40;;
21769;SDS011;11046;49.558;8.674;2023-04-07T08:07:58;9.38;;;5.35;;
21769;SDS011;11046;49.558;8.674;2023-04-07T08:10:59;8.52;;;5.00;;
21769;SDS011;11046;49.558;8.674;2023-04-07T08:13:59;11.43;;;6.25;;
21769;SDS011;11046;49.558;8.674;2023-04-07T08:17:00;11.10;;;5.70;;
21769;SDS011;11046;49.558;8.674;2023-04-07T08:20:01;8.90;;;5.22;;
21769;SDS011;11046;49.558;8.674;2023-04-07T08:23:02;9.35;;;5.22;;
21769;SDS011;11046;49.558;8.674;2023-04-07T08:26:03;12.70;;;5.43;;
21769;SDS011;11046;49.558;8.674;2023-04-07T08:29:04;9.40;;;5.82;;
21769;SDS011;11046;49.558;8.674;2023-04-07T08:32:05;10.35;;;6.05;;
21769;SDS011;11046;49.558;8.674;2023-04-07T08:35:05;9.23;;;5.60;;
21769;SDS011;11046;49.558;8.674;2023-04-07T08:38:06;11.35;;;6.25;;
21769;SDS011;11046;49.558;8.674;2023-04-07T08:41:10;12.90;;;6.43;;
21769;SDS011;11046;49.558;8.674;2023-04-07T08:44:12;11.15;;;6.00;;
21769;SDS011;11046;49.558;8.674;2023-04-07T08:47:14;11.05;;;6.18;;
21769;SDS011;11046;49.558;8.674;2023-04-07T08:50:16;10.40;;;6.45;;
21769;SDS011;11046;49.558;8.674;2023-04-07T08:53:22;12.38;;;6.78;;
21769;SDS011;11046;49.558;8.674;2023-04-07T08:56:27;9.80;;;5.97;;
21769;SDS011;11046;49.558;8.674;2023-04-07T08:59:28;11.95;;;6.80;;
21769;SDS011;11046;49.558;8.674;2023-04-07T09:02:31;9.75;;;5.85;;
21769;SDS011;11046;49.558;8.674;2023-04-07T09:05:33;9.52;;;5.57;;
21769;SDS011;11046;49.558;8.674;2023-04-07T09:08:34;10.35;;;6.63;;
21769;SDS011;11046;49.558;8.674;2023-04-07T09:11:36;12.30;;;6.80;;
21769;SDS011;11046;49.558;8.674;2023-04-07T09:14:37;11.20;;;7.05;;
21769;SDS011;11046;49.558;8.674;2023-04-07T09:17:38;11.48;;;7.20;;
21769;SDS011;11046;49.558;8.674;2023-04-07T09:23:55;10.38;;;6.35;;
21769;SDS011;11046;49.558;8.674;2023-04-07T09:27:15;12.27;;;6.75;;
21769;SDS011;11046;49.558;8.674;2023-04-07T09:30:18;11.93;;;6.20;;
21769;SDS011;11046;49.558;8.674;2023-04-07T09:33:25;10.40;;;6.20;;
21769;SDS011;11046;49.558;8.674;2023-04-07T09:36:28;10.85;;;6.72;;
21769;SDS011;11046;49.558;8.674;2023-04-07T09:39:49;12.57;;;6.90;;
21769;SDS011;11046;49.558;8.674;2023-04-07T09:42:52;10.35;;;6.40;;
21769;SDS011;11046;49.558;8.674;2023-04-07T09:45:53;10.30;;;6.10;;
21769;SDS011;11046;49.558;8.674;2023-04-07T09:49:07;10.57;;;5.95;;
21769;SDS011;11046;49.558;8.674;2023-04-07T09:52:08;11.02;;;5.72;;
21769;SDS011;11046;49.558;8.674;2023-04-07T09:55:08;9.30;;;5.82;;
21769;SDS011;11046;49.558;8.674;2023-04-07T09:58:11;9.90;;;6.03;;
21769;SDS011;11046;49.558;8.674;2023-04-07T10:01:14;6.50;;;4.93;;
21769;SDS011;11046;49.558;8.674;2023-04-07T10:04:18;9.30;;;5.35;;
21769;SDS011;11046;49.558;8.674;2023-04-07T10:07:19;9.07;;;5.70;;
21769;SDS011;11046;49.558;8.674;2023-04-07T10:10:20;7.88;;;5.30;;
21769;SDS011;11046;49.558;8.674;2023-04-07T10:13:20;7.78;;;4.82;;
21769;SDS011;11046;49.558;8.674;2023-04-07T10:16:23;8.15;;;5.55;;
21769;SDS011;11046;49.558;8.674;2023-04-07T10:19:24;6.43;;;4.70;;
21769;SDS011;11046;49.558;8.674;2023-04-07T10:22:28;6.03;;;4.10;;
21769;SDS011;11046;49.558;8.674;2023-04-07T10:25:30;8.45;;;4.03;;
21769;SDS011;11046;49.558;8.674;2023-04-07T10:28:31;5.15;;;3.38;;
21769;SDS011;11046;49.558;8.674;2023-04-07T10:31:37;4.63;;;3.50;;
21769;SDS011;11046;49.558;8.674;2023-04-07T10:41:45;5.55;;;3.60;;
21769;SDS011;11046;49.558;8.674;2023-04-07T10:54:19;6.95;;;4.47;;
21769;SDS011;11046;49.558;8.674;2023-04-07T10:57:21;7.25;;;4.65;;
21769;SDS011;11046;49.558;8.674;2023-04-07T11:00:23;6.40;;;4.30;;
21769;SDS011;11046;49.558;8.674;2023-04-07T11:03:24;5.65;;;4.40;;
21769;SDS011;11046;49.558;8.674;2023-04-07T11:06:25;7.93;;;5.60;;
21769;SDS011;11046;49.558;8.674;2023-04-07T11:09:26;7.75;;;5.10;;
21769;SDS011;11046;49.558;8.674;2023-04-07T11:12:27;8.23;;;5.20;;
21769;SDS011;11046;49.558;8.674;2023-04-07T11:15:27;7.40;;;4.30;;
21769;SDS011;11046;49.558;8.674;2023-04-07T11:18:28;5.82;;;4.30;;
21769;SDS011;11046;49.558;8.674;2023-04-07T11:21:29;7.45;;;4.90;;
21769;SDS011;11046;49.558;8.674;2023-04-07T11:24:35;6.68;;;4.40;;
21769;SDS011;11046;49.558;8.674;2023-04-07T11:27:39;6.30;;;4.50;;
21769;SDS011;11046;49.558;8.674;2023-04-07T11:30:47;8.95;;;4.72;;
21769;SDS011;11046;49.558;8.674;2023-04-07T11:33:51;7.13;;;4.95;;
21769;SDS011;11046;49.558;8.674;2023-04-07T11:36:55;6.40;;;4.70;;
21769;SDS011;11046;49.558;8.674;2023-04-07T11:39:58;6.97;;;4.93;;
21769;SDS011;11046;49.558;8.674;2023-04-07T11:43:00;7.63;;;5.13;;
21769;SDS011;11046;49.558;8.674;2023-04-07T11:46:08;6.40;;;4.32;;
21769;SDS011;11046;49.558;8.674;2023-04-07T11:49:11;6.38;;;4.43;;
21769;SDS011;11046;49.558;8.674;2023-04-07T11:52:13;6.65;;;4.53;;
21769;SDS011;11046;49.558;8.674;2023-04-07T11:55:17;6.05;;;3.78;;
21769;SDS011;11046;49.558;8.674;2023-04-07T11:58:20;4.07;;;3.28;;
21769;SDS011;11046;49.558;8.674;2023-04-07T12:01:21;5.20;;;3.38;;
21769;SDS011;11046;49.558;8.674;2023-04-07T12:04:23;5.38;;;3.53;;
21769;SDS011;11046;49.558;8.674;2023-04-07T12:07:24;4.78;;;3.70;;
21769;SDS011;11046;49.558;8.674;2023-04-07T12:10:25;5.00;;;3.38;;
21769;SDS011;11046;49.558;8.674;2023-04-07T12:13:26;5.65;;;3.83;;
21769;SDS011;11046;49.558;8.674;2023-04-07T12:16:26;5.38;;;3.58;;
21769;SDS011;11046;49.558;8.674;2023-04-07T12:19:28;7.63;;;3.75;;
21769;SDS011;11046;49.558;8.674;2023-04-07T12:22:31;4.60;;;3.38;;
21769;SDS011;11046;49.558;8.674;2023-04-07T12:25:32;4.43;;;3.10;;
21769;SDS011;11046;49.558;8.674;2023-04-07T12:28:32;4.70;;;2.85;;
21769;SDS011;11046;49.558;8.674;2023-04-07T12:31:33;4.28;;;3.00;;
21769;SDS011;11046;49.558;8.674;2023-04-07T12:34:34;4.57;;;3.00;;
21769;SDS011;11046;49.558;8.674;2023-04-07T12:37:36;4.60;;;3.00;;
21769;SDS011;11046;49.558;8.674;2023-04-07T12:40:37;4.53;;;2.83;;
21769;SDS011;11046;49.558;8.674;2023-04-07T12:43:38;3.67;;;2.20;;
21769;SDS011;11046;49.558;8.674;2023-04-07T12:46:38;3.53;;;2.45;;
21769;SDS011;11046;49.558;8.674;2023-04-07T12:49:39;4.40;;;2.92;;
21769;SDS011;11046;49.558;8.674;2023-04-07T12:52:40;3.83;;;2.63;;
21769;SDS011;11046;49.558;8.674;2023-04-07T12:55:40;3.30;;;2.25;;
21769;SDS011;11046;49.558;8.674;2023-04-07T12:58:41;2.40;;;2.10;;
21769;SDS011;11046;49.558;8.674;2023-04-07T13:01:42;3.30;;;2.55;;
21769;SDS011;11046;49.558;8.674;2023-04-07T13:04:42;3.03;;;2.42;;
21769;SDS011;11046;49.558;8.674;2023-04-07T13:07:45;4.15;;;3.00;;
21769;SDS011;11046;49.558;8.674;2023-04-07T13:10:46;7.38;;;3.90;;
21769;SDS011;11046;49.558;8.674;2023-04-07T13:13:46;4.95;;;3.20;;
21769;SDS011;11046;49.558;8.674;2023-04-07T13:16:47;4.75;;;3.00;;
21769;SDS011;11046;49.558;8.674;2023-04-07T13:19:47;3.70;;;2.50;;
21769;SDS011;11046;49.558;8.674;2023-04-07T13:22:49;5.03;;;3.20;;
21769;SDS011;11046;49.558;8.674;2023-04-07T13:25:49;3.47;;;2.47;;
21769;SDS011;11046;49.558;8.674;2023-04-07T13:28:50;3.53;;;2.85;;
21769;SDS011;11046;49.558;8.674;2023-04-07T13:31:50;3.50;;;2.08;;
21769;SDS011;11046;49.558;8.674;2023-04-07T13:34:51;3.42;;;2.25;;
21769;SDS011;11046;49.558;8.674;2023-04-07T13:37:51;2.85;;;2.05;;
21769;SDS011;11046;49.558;8.674;2023-04-07T13:40:52;4.40;;;3.00;;
21769;SDS011;11046;49.558;8.674;2023-04-07T13:43:53;4.00;;;3.15;;
21769;SDS011;11046;49.558;8.674;2023-04-07T13:46:54;3.42;;;2.30;;
21769;SDS011;11046;49.558;8.674;2023-04-07T13:49:55;3.25;;;2.40;;
21769;SDS011;11046;49.558;8.674;2023-04-07T13:52:56;3.55;;;2.60;;
21769;SDS011;11046;49.558;8.674;2023-04-07T13:55:56;3.70;;;2.30;;
21769;SDS011;11046;49.558;8.674;2023-04-07T13:58:57;3.45;;;2.50;;
21769;SDS011;11046;49.558;8.674;2023-04-07T14:01:57;3.03;;;2.40;;
21769;SDS011;11046;49.558;8.674;2023-04-07T14:04:58;3.67;;;2.40;;
21769;SDS011;11046;49.558;8.674;2023-04-07T14:07:58;2.38;;;1.88;;
21769;SDS011;11046;49.558;8.674;2023-04-07T14:10:59;3.72;;;2.50;;
21769;SDS011;11046;49.558;8.674;2023-04-07T14:14:00;3.75;;;2.25;;
21769;SDS011;11046;49.558;8.674;2023-04-07T14:17:01;2.75;;;2.28;;
21769;SDS011;11046;49.558;8.674;2023-04-07T14:20:01;3.03;;;2.47;;
21769;SDS011;11046;49.558;8.674;2023-04-07T14:23:02;4.40;;;2.90;;
21769;SDS011;11046;49.558;8.674;2023-04-07T14:26:03;4.80;;;3.10;;
21769;SDS011;11046;49.558;8.674;2023-04-07T14:29:04;3.42;;;2.55;;
21769;SDS011;11046;49.558;8.674;2023-04-07T14:32:04;3.38;;;2.35;;
21769;SDS011;11046;49.558;8.674;2023-04-07T14:35:05;5.35;;;2.60;;
21769;SDS011;11046;49.558;8.674;2023-04-07T14:38:06;2.65;;;2.35;;
21769;SDS011;11046;49.558;8.674;2023-04-07T14:41:06;3.85;;;3.03;;
21769;SDS011;11046;49.558;8.674;2023-04-07T14:44:08;1.98;;;1.50;;
21769;SDS011;11046;49.558;8.674;2023-04-07T14:47:08;2.38;;;1.77;;
21769;SDS011;11046;49.558;8.674;2023-04-07T14:50:09;1.67;;;1.40;;
21769;SDS011;11046;49.558;8.674;2023-04-07T14:53:10;1.90;;;1.50;;
21769;SDS011;11046;49.558;8.674;2023-04-07T14:56:10;1.10;;;1.00;;
21769;SDS011;11046;49.558;8.674;2023-04-07T14:59:11;1.55;;;1.40;;
21769;SDS011;11046;49.558;8.674;2023-04-07T15:02:12;1.80;;;1.60;;
21769;SDS011;11046;49.558;8.674;2023-04-07T15:05:13;1.52;;;1.38;;
21769;SDS011;11046;49.558;8.674;2023-04-07T15:08:13;2.50;;;1.80;;
21769;SDS011;11046;49.558;8.674;2023-04-07T15:11:14;3.22;;;2.40;;
21769;SDS011;11046;49.558;8.674;2023-04-07T15:14:14;3.15;;;2.10;;
21769;SDS011;11046;49.558;8.674;2023-04-07T15:17:15;2.75;;;2.17;;
21769;SDS011;11046;49.558;8.674;2023-04-07T15:20:15;3.63;;;2.17;;
21769;SDS011;11046;49.558;8.674;2023-04-07T15:23:16;3.47;;;2.22;;
21769;SDS011;11046;49.558;8.674;2023-04-07T15:26:17;4.03;;;2.55;;
21769;SDS011;11046;49.558;8.674;2023-04-07T15:29:17;3.38;;;2.28;;
21769;SDS011;11046;49.558;8.674;2023-04-07T15:32:18;3.55;;;2.38;;
21769;SDS011;11046;49.558;8.674;2023-04-07T15:35:18;3.42;;;2.40;;
21769;SDS011;11046;49.558;8.674;2023-04-07T15:38:19;4.20;;;2.78;;
21769;SDS011;11046;49.558;8.674;2023-04-07T15:41:19;4.88;;;3.30;;
21769;SDS011;11046;49.558;8.674;2023-04-07T15:44:20;5.18;;;3.40;;
21769;SDS011;11046;49.558;8.674;2023-04-07T15:47:21;4.97;;;3.40;;
21769;SDS011;11046;49.558;8.674;2023-04-07T15:50:22;4.07;;;2.97;;
21769;SDS011;11046;49.558;8.674;2023-04-07T15:53:22;4.38;;;3.03;;
21769;SDS011;11046;49.558;8.674;2023-04-07T15:56:23;5.38;;;3.38;;
21769;SDS011;11046;49.558;8.674;2023-04-07T15:59:24;3.80;;;3.08;;
21769;SDS011;11046;49.558;8.674;2023-04-07T16:02:24;4.63;;;3.17;;
21769;SDS011;11046;49.558;8.674;2023-04-07T16:05:25;3.47;;;2.63;;
21769;SDS011;11046;49.558;8.674;2023-04-07T16:08:25;3.20;;;2.38;;
21769;SDS011;11046;49.558;8.674;2023-04-07T16:11:26;4.38;;;2.78;;
21769;SDS011;11046;49.558;8.674;2023-04-07T16:14:27;18.33;;;9.45;;
21769;SDS011;11046;49.558;8.674;2023-04-07T16:17:28;4.32;;;2.50;;
21769;SDS011;11046;49.558;8.674;2023-04-07T16:20:28;4.38;;;3.25;;
21769;SDS011;11046;49.558;8.674;2023-04-07T16:23:29;5.45;;;2.58;;
21769;SDS011;11046;49.558;8.674;2023-04-07T16:26:30;3.42;;;2.38;;
21769;SDS011;11046;49.558;8.674;2023-04-07T16:29:30;2.25;;;2.00;;
21769;SDS011;11046;49.558;8.674;2023-04-07T16:32:31;3.50;;;1.90;;
21769;SDS011;11046;49.558;8.674;2023-04-07T16:35:33;2.72;;;2.13;;
21769;SDS011;11046;49.558;8.674;2023-04-07T16:38:33;3.92;;;1.95;;
21769;SDS011;11046;49.558;8.674;2023-04-07T16:41:34;3.67;;;2.30;;
21769;SDS011;11046;49.558;8.674;2023-04-07T16:44:34;4.18;;;2.67;;
21769;SDS011;11046;49.558;8.674;2023-04-07T16:47:35;3.97;;;2.70;;
21769;SDS011;11046;49.558;8.674;2023-04-07T16:50:40;3.38;;;2.47;;
21769;SDS011;11046;49.558;8.674;2023-04-07T16:53:41;2.85;;;2.20;;
21769;SDS011;11046;49.558;8.674;2023-04-07T16:56:42;3.67;;;2.75;;
21769;SDS011;11046;49.558;8.674;2023-04-07T16:59:43;3.95;;;2.70;;
21769;SDS011;11046;49.558;8.674;2023-04-07T17:02:43;4.03;;;2.50;;
21769;SDS011;11046;49.558;8.674;2023-04-07T17:05:44;4.18;;;2.90;;
21769;SDS011;11046;49.558;8.674;2023-04-07T17:08:46;5.80;;;3.10;;
21769;SDS011;11046;49.558;8.674;2023-04-07T17:11:48;3.72;;;2.78;;
21769;SDS011;11046;49.558;8.674;2023-04-07T17:14:48;3.85;;;2.53;;
21769;SDS011;11046;49.558;8.674;2023-04-07T17:17:49;4.22;;;3.00;;
21769;SDS011;11046;49.558;8.674;2023-04-07T17:20:50;5.82;;;3.63;;
21769;SDS011;11046;49.558;8.674;2023-04-07T17:23:50;6.03;;;3.25;;
21769;SDS011;11046;49.558;8.674;2023-04-07T17:26:51;4.00;;;2.80;;
21769;SDS011;11046;49.558;8.674;2023-04-07T17:29:52;4.88;;;2.80;;
21769;SDS011;11046;49.558;8.674;2023-04-07T17:32:53;4.72;;;2.90;;
21769;SDS011;11046;49.558;8.674;2023-04-07T17:35:53;5.07;;;3.15;;
21769;SDS011;11046;49.558;8.674;2023-04-07T17:38:54;5.22;;;3.10;;
21769;SDS011;11046;49.558;8.674;2023-04-07T17:41:55;5.30;;;3.60;;
21769;SDS011;11046;49.558;8.674;2023-04-07T17:44:55;5.18;;;3.08;;
21769;SDS011;11046;49.558;8.674;2023-04-07T17:47:56;4.97;;;3.10;;
21769;SDS011;11046;49.558;8.674;2023-04-07T17:50:57;6.38;;;4.20;;
21769;SDS011;11046;49.558;8.674;2023-04-07T17:53:58;5.93;;;3.78;;
21769;SDS011;11046;49.558;8.674;2023-04-07T17:56:59;4.77;;;3.10;;
21769;SDS011;11046;49.558;8.674;2023-04-07T18:00:00;7.10;;;4.47;;
21769;SDS011;11046;49.558;8.674;2023-04-07T18:03:12;5.67;;;3.70;;
21769;SDS011;11046;49.558;8.674;2023-04-07T18:06:14;5.47;;;3.70;;
21769;SDS011;11046;49.558;8.674;2023-04-07T18:09:15;6.27;;;4.00;;
21769;SDS011;11046;49.558;8.674;2023-04-07T18:12:16;10.50;;;6.77;;
21769;SDS011;11046;49.558;8.674;2023-04-07T18:15:17;6.30;;;3.97;;
21769;SDS011;11046;49.558;8.674;2023-04-07T18:18:18;8.13;;;4.23;;
21769;SDS011;11046;49.558;8.674;2023-04-07T18:21:19;8.70;;;4.47;;
21769;SDS011;11046;49.558;8.674;2023-04-07T18:24:20;18.90;;;8.90;;
21769;SDS011;11046;49.558;8.674;2023-04-07T18:27:20;15.27;;;7.20;;
21769;SDS011;11046;49.558;8.674;2023-04-07T18:30:24;10.97;;;6.27;;